sensor_id;sensor_type;location;lat;lon;timestamp;temperature;humidity
18191;DHT22;47004;51.366;12.348;2022-11-15T00:01:40;6.80;99.90
18191;DHT22;47004;51.366;12.348;2022-11-15T00:03:42;6.80;99.90
18191;DHT22;47004;51.366;12.348;2022-11-15T00:05:44;6.80;99.90
18191;DHT22;47004;51.366;12.348;2022-11-15T00:07:47;6.80;99.90
18191;DHT22;47004;51.366;12.348;2022-11-15T00:09:49;6.80;99.90
18191;DHT22;47004;51.366;12.348;2022-11-15T00:11:51;6.80;99.90
18191;DHT22;47004;51.366;12.348;2022-11-15T00:13:55;6.80;99.90
18191;DHT22;47004;51.366;12.348;2022-11-15T00:15:58;6.80;99.90
18191;DHT22;47004;51.366;12.348;2022-11-15T00:18:00;6.80;99.90
18191;DHT22;47004;51.366;12.348;2022-11-15T00:20:02;6.80;99.90
18191;DHT22;47004;51.366;12.348;2022-11-15T00:22:04;6.90;99.90
18191;DHT22;47004;51.366;12.348;2022-11-15T00:24:07;6.90;99.90
18191;DHT22;47004;51.366;12.348;2022-11-15T00:26:12;6.90;99.90
18191;DHT22;47004;51.366;12.348;2022-11-15T00:28:14;6.90;99.90
18191;DHT22;47004;51.366;12.348;2022-11-15T00:30:16;6.90;99.90
18191;DHT22;47004;51.366;12.348;2022-11-15T00:32:18;6.90;99.90
18191;DHT22;47004;51.366;12.348;2022-11-15T00:34:21;6.90;99.90
18191;DHT22;47004;51.366;12.348;2022-11-15T00:36:23;6.90;99.90
18191;DHT22;47004;51.366;12.348;2022-11-15T00:38:25;6.90;99.90
18191;DHT22;47004;51.366;12.348;2022-11-15T00:40:28;7.00;99.90
18191;DHT22;47004;51.366;12.348;2022-11-15T00:42:30;7.00;99.90
18191;DHT22;47004;51.366;12.348;2022-11-15T00:44:32;7.00;99.90
18191;DHT22;47004;51.366;12.348;2022-11-15T00:46:34;7.00;99.90
18191;DHT22;47004;51.366;12.348;2022-11-15T00:48:36;7.00;99.90
18191;DHT22;47004;51.366;12.348;2022-11-15T00:50:37;7.10;99.90
18191;DHT22;47004;51.366;12.348;2022-11-15T00:52:39;7.10;99.90
18191;DHT22;47004;51.366;12.348;2022-11-15T00:54:41;7.10;99.90
18191;DHT22;47004;51.366;12.348;2022-11-15T00:56:44;7.10;99.90
18191;DHT22;47004;51.366;12.348;2022-11-15T00:58:46;7.10;99.90
18191;DHT22;47004;51.366;12.348;2022-11-15T01:00:48;7.10;99.90
18191;DHT22;47004;51.366;12.348;2022-11-15T01:02:50;7.10;99.90
18191;DHT22;47004;51.366;12.348;2022-11-15T01:04:52;7.10;99.90
18191;DHT22;47004;51.366;12.348;2022-11-15T01:06:54;7.10;99.90
18191;DHT22;47004;51.366;12.348;2022-11-15T01:08:56;7.10;99.90
18191;DHT22;47004;51.366;12.348;2022-11-15T01:11:01;7.10;99.90
18191;DHT22;47004;51.366;12.348;2022-11-15T01:13:04;7.10;99.90
18191;DHT22;47004;51.366;12.348;2022-11-15T01:15:06;7.20;99.90
18191;DHT22;47004;51.366;12.348;2022-11-15T01:17:08;7.10;99.90
18191;DHT22;47004;51.366;12.348;2022-11-15T01:19:11;7.10;99.90
18191;DHT22;47004;51.366;12.348;2022-11-15T01:21:15;7.10;99.90
18191;DHT22;47004;51.366;12.348;2022-11-15T01:23:17;7.10;99.90
18191;DHT22;47004;51.366;12.348;2022-11-15T01:25:19;7.10;99.90
18191;DHT22;47004;51.366;12.348;2022-11-15T01:27:20;7.10;99.90
18191;DHT22;47004;51.366;12.348;2022-11-15T01:29:24;7.10;99.90
18191;DHT22;47004;51.366;12.348;2022-11-15T01:31:26;7.10;99.90
18191;DHT22;47004;51.366;12.348;2022-11-15T01:33:28;7.10;99.90
18191;DHT22;47004;51.366;12.348;2022-11-15T01:35:30;7.10;99.90
18191;DHT22;47004;51.366;12.348;2022-11-15T01:37:32;7.10;99.90
18191;DHT22;47004;51.366;12.348;2022-11-15T01:39:34;7.10;99.90
18191;DHT22;47004;51.366;12.348;2022-11-15T01:41:36;7.10;99.90
18191;DHT22;47004;51.366;12.348;2022-11-15T01:43:39;7.10;99.90
18191;DHT22;47004;51.366;12.348;2022-11-15T01:45:43;7.10;99.90
18191;DHT22;47004;51.366;12.348;2022-11-15T01:47:50;7.10;99.90
18191;DHT22;47004;51.366;12.348;2022-11-15T01:49:56;7.10;99.90
18191;DHT22;47004;51.366;12.348;2022-11-15T01:52:01;7.10;99.90
18191;DHT22;47004;51.366;12.348;2022-11-15T01:54:08;7.10;99.90
18191;DHT22;47004;51.366;12.348;2022-11-15T01:56:12;7.10;99.90
18191;DHT22;47004;51.366;12.348;2022-11-15T01:58:15;7.00;99.90
18191;DHT22;47004;51.366;12.348;2022-11-15T02:00:17;7.00;99.90
18191;DHT22;47004;51.366;12.348;2022-11-15T02:02:24;7.00;99.90
18191;DHT22;47004;51.366;12.348;2022-11-15T02:04:28;7.00;99.90
18191;DHT22;47004;51.366;12.348;2022-11-15T02:06:30;7.00;99.90
18191;DHT22;47004;51.366;12.348;2022-11-15T02:08:32;7.00;99.90
18191;DHT22;47004;51.366;12.348;2022-11-15T02:10:34;7.00;99.90
18191;DHT22;47004;51.366;12.348;2022-11-15T02:12:36;7.00;99.90
18191;DHT22;47004;51.366;12.348;2022-11-15T02:14:40;7.00;99.90
18191;DHT22;47004;51.366;12.348;2022-11-15T02:16:49;7.00;99.90
18191;DHT22;47004;51.366;12.348;2022-11-15T02:19:08;7.00;99.90
18191;DHT22;47004;51.366;12.348;2022-11-15T02:21:22;7.00;99.90
18191;DHT22;47004;51.366;12.348;2022-11-15T02:23:51;7.00;99.90
18191;DHT22;47004;51.366;12.348;2022-11-15T02:26:09;7.00;99.90
18191;DHT22;47004;51.366;12.348;2022-11-15T02:28:33;7.00;99.90
18191;DHT22;47004;51.366;12.348;2022-11-15T02:30:45;7.00;99.90
18191;DHT22;47004;51.366;12.348;2022-11-15T02:32:51;7.00;99.90
18191;DHT22;47004;51.366;12.348;2022-11-15T02:35:00;6.90;99.90
18191;DHT22;47004;51.366;12.348;2022-11-15T02:37:09;6.90;99.90
18191;DHT22;47004;51.366;12.348;2022-11-15T02:39:19;6.80;99.90
18191;DHT22;47004;51.366;12.348;2022-11-15T02:41:26;6.90;99.90
18191;DHT22;47004;51.366;12.348;2022-11-15T02:43:37;6.90;99.90
18191;DHT22;47004;51.366;12.348;2022-11-15T02:46:03;6.90;99.90
18191;DHT22;47004;51.366;12.348;2022-11-15T02:48:07;6.90;99.90
18191;DHT22;47004;51.366;12.348;2022-11-15T02:50:11;6.90;99.90
18191;DHT22;47004;51.366;12.348;2022-11-15T02:52:15;6.90;99.90
18191;DHT22;47004;51.366;12.348;2022-11-15T02:54:22;6.90;99.90
18191;DHT22;47004;51.366;12.348;2022-11-15T02:56:24;6.90;99.90
18191;DHT22;47004;51.366;12.348;2022-11-15T02:58:47;6.80;99.90
18191;DHT22;47004;51.366;12.348;2022-11-15T03:00:55;6.80;99.90
18191;DHT22;47004;51.366;12.348;2022-11-15T03:03:20;6.80;99.90
18191;DHT22;47004;51.366;12.348;2022-11-15T03:05:34;6.80;99.90
18191;DHT22;47004;51.366;12.348;2022-11-15T03:07:43;6.80;99.90
18191;DHT22;47004;51.366;12.348;2022-11-15T03:09:51;6.80;99.90
18191;DHT22;47004;51.366;12.348;2022-11-15T03:12:00;6.80;99.90
18191;DHT22;47004;51.366;12.348;2022-11-15T03:14:11;6.80;99.90
18191;DHT22;47004;51.366;12.348;2022-11-15T03:16:18;6.80;99.90
18191;DHT22;47004;51.366;12.348;2022-11-15T03:18:26;6.80;99.90
18191;DHT22;47004;51.366;12.348;2022-11-15T03:20:30;6.80;99.90
18191;DHT22;47004;51.366;12.348;2022-11-15T03:22:35;6.80;99.90
18191;DHT22;47004;51.366;12.348;2022-11-15T03:24:38;6.80;99.90
18191;DHT22;47004;51.366;12.348;2022-11-15T03:26:41;6.80;99.90
18191;DHT22;47004;51.366;12.348;2022-11-15T03:28:48;6.80;99.90
18191;DHT22;47004;51.366;12.348;2022-11-15T03:30:52;6.80;99.90
18191;DHT22;47004;51.366;12.348;2022-11-15T03:32:56;6.80;99.90
18191;DHT22;47004;51.366;12.348;2022-11-15T03:35:03;6.80;99.90
18191;DHT22;47004;51.366;12.348;2022-11-15T03:37:07;6.80;99.90
18191;DHT22;47004;51.366;12.348;2022-11-15T03:39:11;6.80;99.90
18191;DHT22;47004;51.366;12.348;2022-11-15T03:41:22;6.80;99.90
18191;DHT22;47004;51.366;12.348;2022-11-15T03:43:32;6.80;99.90
18191;DHT22;47004;51.366;12.348;2022-11-15T03:45:41;6.90;99.90
18191;DHT22;47004;51.366;12.348;2022-11-15T03:47:49;6.80;99.90
18191;DHT22;47004;51.366;12.348;2022-11-15T03:49:57;6.80;99.90
18191;DHT22;47004;51.366;12.348;2022-11-15T03:52:03;6.80;99.90
18191;DHT22;47004;51.366;12.348;2022-11-15T03:54:07;6.80;99.90
18191;DHT22;47004;51.366;12.348;2022-11-15T03:56:09;6.80;99.90
18191;DHT22;47004;51.366;12.348;2022-11-15T03:58:11;6.80;99.90
18191;DHT22;47004;51.366;12.348;2022-11-15T04:00:13;6.80;99.90
18191;DHT22;47004;51.366;12.348;2022-11-15T04:02:16;6.80;99.90
18191;DHT22;47004;51.366;12.348;2022-11-15T04:04:18;6.80;99.90
18191;DHT22;47004;51.366;12.348;2022-11-15T04:06:19;6.70;99.90
18191;DHT22;47004;51.366;12.348;2022-11-15T04:08:23;6.70;99.90
18191;DHT22;47004;51.366;12.348;2022-11-15T04:10:27;6.70;99.90
18191;DHT22;47004;51.366;12.348;2022-11-15T04:12:29;6.70;99.90
18191;DHT22;47004;51.366;12.348;2022-11-15T04:14:34;6.70;99.90
18191;DHT22;47004;51.366;12.348;2022-11-15T04:16:36;6.70;99.90
18191;DHT22;47004;51.366;12.348;2022-11-15T04:18:38;6.70;99.90
18191;DHT22;47004;51.366;12.348;2022-11-15T04:20:40;6.70;99.90
18191;DHT22;47004;51.366;12.348;2022-11-15T04:23:00;6.70;99.90
18191;DHT22;47004;51.366;12.348;2022-11-15T04:25:21;6.70;99.90
18191;DHT22;47004;51.366;12.348;2022-11-15T04:27:23;6.70;99.90
18191;DHT22;47004;51.366;12.348;2022-11-15T04:29:25;6.70;99.90
18191;DHT22;47004;51.366;12.348;2022-11-15T04:31:35;6.70;99.90
18191;DHT22;47004;51.366;12.348;2022-11-15T04:33:37;6.70;99.90
18191;DHT22;47004;51.366;12.348;2022-11-15T04:35:39;6.70;99.90
18191;DHT22;47004;51.366;12.348;2022-11-15T04:37:41;6.70;99.90
18191;DHT22;47004;51.366;12.348;2022-11-15T04:39:43;6.70;99.90
18191;DHT22;47004;51.366;12.348;2022-11-15T04:41:46;6.60;99.90
18191;DHT22;47004;51.366;12.348;2022-11-15T04:43:48;6.60;99.90
18191;DHT22;47004;51.366;12.348;2022-11-15T04:45:50;6.70;99.90
18191;DHT22;47004;51.366;12.348;2022-11-15T04:47:52;6.60;99.90
18191;DHT22;47004;51.366;12.348;2022-11-15T04:49:54;6.60;99.90
18191;DHT22;47004;51.366;12.348;2022-11-15T04:51:56;6.60;99.90
18191;DHT22;47004;51.366;12.348;2022-11-15T04:53:58;6.70;99.90
18191;DHT22;47004;51.366;12.348;2022-11-15T04:56:00;6.70;99.90
18191;DHT22;47004;51.366;12.348;2022-11-15T04:58:03;6.70;99.90
18191;DHT22;47004;51.366;12.348;2022-11-15T05:00:07;6.70;99.90
18191;DHT22;47004;51.366;12.348;2022-11-15T05:02:09;6.70;99.90
18191;DHT22;47004;51.366;12.348;2022-11-15T05:04:11;6.60;99.90
18191;DHT22;47004;51.366;12.348;2022-11-15T05:06:21;6.60;99.90
18191;DHT22;47004;51.366;12.348;2022-11-15T05:08:23;6.60;99.90
18191;DHT22;47004;51.366;12.348;2022-11-15T05:10:25;6.60;99.90
18191;DHT22;47004;51.366;12.348;2022-11-15T05:12:27;6.70;99.90
18191;DHT22;47004;51.366;12.348;2022-11-15T05:14:30;6.70;99.90
18191;DHT22;47004;51.366;12.348;2022-11-15T05:16:32;6.70;99.90
18191;DHT22;47004;51.366;12.348;2022-11-15T05:18:34;6.70;99.90
18191;DHT22;47004;51.366;12.348;2022-11-15T05:20:36;6.70;99.90
18191;DHT22;47004;51.366;12.348;2022-11-15T05:22:38;6.70;99.90
18191;DHT22;47004;51.366;12.348;2022-11-15T05:24:40;6.70;99.90
18191;DHT22;47004;51.366;12.348;2022-11-15T05:26:42;6.60;99.90
18191;DHT22;47004;51.366;12.348;2022-11-15T05:28:44;6.70;99.90
18191;DHT22;47004;51.366;12.348;2022-11-15T05:30:48;6.60;99.90
18191;DHT22;47004;51.366;12.348;2022-11-15T05:32:53;6.60;99.90
18191;DHT22;47004;51.366;12.348;2022-11-15T05:34:55;6.60;99.90
18191;DHT22;47004;51.366;12.348;2022-11-15T05:36:58;6.60;99.90
18191;DHT22;47004;51.366;12.348;2022-11-15T05:39:01;6.60;99.90
18191;DHT22;47004;51.366;12.348;2022-11-15T05:41:04;6.60;99.90
18191;DHT22;47004;51.366;12.348;2022-11-15T05:43:07;6.60;99.90
18191;DHT22;47004;51.366;12.348;2022-11-15T05:45:09;6.60;99.90
18191;DHT22;47004;51.366;12.348;2022-11-15T05:47:15;6.60;99.90
18191;DHT22;47004;51.366;12.348;2022-11-15T05:49:20;6.60;99.90
18191;DHT22;47004;51.366;12.348;2022-11-15T05:51:23;6.60;99.90
18191;DHT22;47004;51.366;12.348;2022-11-15T05:53:26;6.60;99.90
18191;DHT22;47004;51.366;12.348;2022-11-15T05:55:28;6.60;99.90
18191;DHT22;47004;51.366;12.348;2022-11-15T05:57:30;6.60;99.90
18191;DHT22;47004;51.366;12.348;2022-11-15T05:59:33;6.60;99.90
18191;DHT22;47004;51.366;12.348;2022-11-15T06:01:36;6.60;99.90
18191;DHT22;47004;51.366;12.348;2022-11-15T06:03:40;6.60;99.90
18191;DHT22;47004;51.366;12.348;2022-11-15T06:05:42;6.60;99.90
18191;DHT22;47004;51.366;12.348;2022-11-15T06:07:44;6.60;99.90
18191;DHT22;47004;51.366;12.348;2022-11-15T06:09:46;6.60;99.90
18191;DHT22;47004;51.366;12.348;2022-11-15T06:11:48;6.60;99.90
18191;DHT22;47004;51.366;12.348;2022-11-15T06:13:50;6.60;99.90
18191;DHT22;47004;51.366;12.348;2022-11-15T06:15:55;6.60;99.90
18191;DHT22;47004;51.366;12.348;2022-11-15T06:17:57;6.60;99.90
18191;DHT22;47004;51.366;12.348;2022-11-15T06:20:00;6.60;99.90
18191;DHT22;47004;51.366;12.348;2022-11-15T06:22:03;6.60;99.90
18191;DHT22;47004;51.366;12.348;2022-11-15T06:24:05;6.60;99.90
18191;DHT22;47004;51.366;12.348;2022-11-15T06:26:07;6.60;99.90
18191;DHT22;47004;51.366;12.348;2022-11-15T06:28:09;6.60;99.90
18191;DHT22;47004;51.366;12.348;2022-11-15T06:30:11;6.60;99.90
18191;DHT22;47004;51.366;12.348;2022-11-15T06:32:13;6.50;99.90
18191;DHT22;47004;51.366;12.348;2022-11-15T06:34:15;6.50;99.90
18191;DHT22;47004;51.366;12.348;2022-11-15T06:36:18;6.50;99.90
18191;DHT22;47004;51.366;12.348;2022-11-15T06:38:21;6.60;99.90
18191;DHT22;47004;51.366;12.348;2022-11-15T06:40:24;6.50;99.90
18191;DHT22;47004;51.366;12.348;2022-11-15T06:42:26;6.50;99.90
18191;DHT22;47004;51.366;12.348;2022-11-15T06:44:29;6.50;99.90
18191;DHT22;47004;51.366;12.348;2022-11-15T06:46:34;6.50;99.90
18191;DHT22;47004;51.366;12.348;2022-11-15T06:48:39;6.50;99.90
18191;DHT22;47004;51.366;12.348;2022-11-15T06:50:41;6.50;99.90
18191;DHT22;47004;51.366;12.348;2022-11-15T06:52:44;6.50;99.90
18191;DHT22;47004;51.366;12.348;2022-11-15T06:54:46;6.50;99.90
18191;DHT22;47004;51.366;12.348;2022-11-15T06:56:48;6.50;99.90
18191;DHT22;47004;51.366;12.348;2022-11-15T06:58:50;6.50;99.90
18191;DHT22;47004;51.366;12.348;2022-11-15T07:00:52;6.50;99.90
18191;DHT22;47004;51.366;12.348;2022-11-15T07:02:54;6.50;99.90
18191;DHT22;47004;51.366;12.348;2022-11-15T07:04:56;6.50;99.90
18191;DHT22;47004;51.366;12.348;2022-11-15T07:06:58;6.50;99.90
18191;DHT22;47004;51.366;12.348;2022-11-15T07:09:03;6.60;99.90
18191;DHT22;47004;51.366;12.348;2022-11-15T07:11:07;6.50;99.90
18191;DHT22;47004;51.366;12.348;2022-11-15T07:13:09;6.60;99.90
18191;DHT22;47004;51.366;12.348;2022-11-15T07:15:12;6.60;99.90
18191;DHT22;47004;51.366;12.348;2022-11-15T07:17:14;6.60;99.90
18191;DHT22;47004;51.366;12.348;2022-11-15T07:19:16;6.60;99.90
18191;DHT22;47004;51.366;12.348;2022-11-15T07:21:18;6.60;99.90
18191;DHT22;47004;51.366;12.348;2022-11-15T07:23:20;6.60;99.90
18191;DHT22;47004;51.366;12.348;2022-11-15T07:25:23;6.70;99.90
18191;DHT22;47004;51.366;12.348;2022-11-15T07:27:25;6.70;99.90
18191;DHT22;47004;51.366;12.348;2022-11-15T07:29:27;6.70;99.90
18191;DHT22;47004;51.366;12.348;2022-11-15T07:31:29;6.70;99.90
18191;DHT22;47004;51.366;12.348;2022-11-15T07:33:31;6.60;99.90
18191;DHT22;47004;51.366;12.348;2022-11-15T07:35:33;6.70;99.90
18191;DHT22;47004;51.366;12.348;2022-11-15T07:37:35;6.70;99.90
18191;DHT22;47004;51.366;12.348;2022-11-15T07:39:37;6.70;99.90
18191;DHT22;47004;51.366;12.348;2022-11-15T07:41:41;6.80;99.90
18191;DHT22;47004;51.366;12.348;2022-11-15T07:43:43;6.80;99.90
18191;DHT22;47004;51.366;12.348;2022-11-15T07:45:46;6.80;99.90
18191;DHT22;47004;51.366;12.348;2022-11-15T07:47:48;6.80;99.90
18191;DHT22;47004;51.366;12.348;2022-11-15T07:49:50;6.80;99.90
18191;DHT22;47004;51.366;12.348;2022-11-15T07:51:52;6.80;99.90
18191;DHT22;47004;51.366;12.348;2022-11-15T07:53:54;6.90;99.90
18191;DHT22;47004;51.366;12.348;2022-11-15T07:55:57;6.90;99.90
18191;DHT22;47004;51.366;12.348;2022-11-15T07:58:05;7.00;99.90
18191;DHT22;47004;51.366;12.348;2022-11-15T08:00:08;7.00;99.90
18191;DHT22;47004;51.366;12.348;2022-11-15T08:02:10;7.10;99.90
18191;DHT22;47004;51.366;12.348;2022-11-15T08:04:12;7.10;99.90
18191;DHT22;47004;51.366;12.348;2022-11-15T08:06:14;7.10;99.90
18191;DHT22;47004;51.366;12.348;2022-11-15T08:08:16;7.20;99.90
18191;DHT22;47004;51.366;12.348;2022-11-15T08:10:18;7.20;99.90
18191;DHT22;47004;51.366;12.348;2022-11-15T08:12:21;7.40;99.90
18191;DHT22;47004;51.366;12.348;2022-11-15T08:14:25;7.20;99.90
18191;DHT22;47004;51.366;12.348;2022-11-15T08:16:27;7.40;99.90
18191;DHT22;47004;51.366;12.348;2022-11-15T08:18:31;7.40;99.90
18191;DHT22;47004;51.366;12.348;2022-11-15T08:20:33;7.40;99.90
18191;DHT22;47004;51.366;12.348;2022-11-15T08:22:38;7.50;99.90
18191;DHT22;47004;51.366;12.348;2022-11-15T08:24:40;7.50;99.90
18191;DHT22;47004;51.366;12.348;2022-11-15T08:26:42;7.60;99.90
18191;DHT22;47004;51.366;12.348;2022-11-15T08:28:47;7.70;99.90
18191;DHT22;47004;51.366;12.348;2022-11-15T08:30:50;7.70;99.90
18191;DHT22;47004;51.366;12.348;2022-11-15T08:32:59;7.80;99.90
18191;DHT22;47004;51.366;12.348;2022-11-15T08:35:01;7.80;99.90
18191;DHT22;47004;51.366;12.348;2022-11-15T08:37:03;7.90;99.90
18191;DHT22;47004;51.366;12.348;2022-11-15T08:39:05;7.90;99.90
18191;DHT22;47004;51.366;12.348;2022-11-15T08:41:11;7.90;99.90
18191;DHT22;47004;51.366;12.348;2022-11-15T08:43:14;8.00;99.90
18191;DHT22;47004;51.366;12.348;2022-11-15T08:45:16;8.10;99.90
18191;DHT22;47004;51.366;12.348;2022-11-15T08:47:19;8.10;99.90
18191;DHT22;47004;51.366;12.348;2022-11-15T08:49:23;8.10;99.90
18191;DHT22;47004;51.366;12.348;2022-11-15T08:51:31;8.20;99.90
18191;DHT22;47004;51.366;12.348;2022-11-15T08:53:47;8.20;99.90
18191;DHT22;47004;51.366;12.348;2022-11-15T08:55:50;8.20;99.90
18191;DHT22;47004;51.366;12.348;2022-11-15T08:57:52;8.30;99.90
18191;DHT22;47004;51.366;12.348;2022-11-15T08:59:54;8.30;99.90
18191;DHT22;47004;51.366;12.348;2022-11-15T09:01:56;8.40;99.90
18191;DHT22;47004;51.366;12.348;2022-11-15T09:04:09;8.80;99.90
18191;DHT22;47004;51.366;12.348;2022-11-15T09:06:13;8.60;99.90
18191;DHT22;47004;51.366;12.348;2022-11-15T09:08:15;8.60;99.90
18191;DHT22;47004;51.366;12.348;2022-11-15T09:10:18;8.70;99.90
18191;DHT22;47004;51.366;12.348;2022-11-15T09:12:21;8.80;99.90
18191;DHT22;47004;51.366;12.348;2022-11-15T09:14:23;9.00;99.90
18191;DHT22;47004;51.366;12.348;2022-11-15T09:16:25;8.80;99.90
18191;DHT22;47004;51.366;12.348;2022-11-15T09:18:27;8.90;99.90
18191;DHT22;47004;51.366;12.348;2022-11-15T09:20:32;9.00;99.90
18191;DHT22;47004;51.366;12.348;2022-11-15T09:22:34;9.00;99.90
18191;DHT22;47004;51.366;12.348;2022-11-15T09:24:36;9.00;99.90
18191;DHT22;47004;51.366;12.348;2022-11-15T09:26:38;9.10;99.90
18191;DHT22;47004;51.366;12.348;2022-11-15T09:28:41;9.10;99.90
18191;DHT22;47004;51.366;12.348;2022-11-15T09:30:43;9.20;99.90
18191;DHT22;47004;51.366;12.348;2022-11-15T09:32:45;9.20;99.90
18191;DHT22;47004;51.366;12.348;2022-11-15T09:34:49;9.30;99.90
18191;DHT22;47004;51.366;12.348;2022-11-15T09:36:53;9.30;99.90
18191;DHT22;47004;51.366;12.348;2022-11-15T09:38:57;9.40;99.90
18191;DHT22;47004;51.366;12.348;2022-11-15T09:41:25;9.40;99.90
18191;DHT22;47004;51.366;12.348;2022-11-15T09:43:32;9.50;99.90
18191;DHT22;47004;51.366;12.348;2022-11-15T09:45:45;9.60;99.90
18191;DHT22;47004;51.366;12.348;2022-11-15T09:48:04;9.70;99.90
18191;DHT22;47004;51.366;12.348;2022-11-15T09:50:11;9.80;99.90
18191;DHT22;47004;51.366;12.348;2022-11-15T09:52:15;9.90;99.90
18191;DHT22;47004;51.366;12.348;2022-11-15T09:54:28;10.00;99.90
18191;DHT22;47004;51.366;12.348;2022-11-15T09:56:32;10.10;99.90
18191;DHT22;47004;51.366;12.348;2022-11-15T09:58:38;10.20;99.90
18191;DHT22;47004;51.366;12.348;2022-11-15T10:00:44;10.30;99.90
18191;DHT22;47004;51.366;12.348;2022-11-15T10:02:59;10.40;99.90
18191;DHT22;47004;51.366;12.348;2022-11-15T10:05:06;10.50;99.90
18191;DHT22;47004;51.366;12.348;2022-11-15T10:07:16;10.70;99.90
18191;DHT22;47004;51.366;12.348;2022-11-15T10:09:22;10.80;99.90
18191;DHT22;47004;51.366;12.348;2022-11-15T10:11:27;10.90;99.90
18191;DHT22;47004;51.366;12.348;2022-11-15T10:13:32;11.00;99.90
18191;DHT22;47004;51.366;12.348;2022-11-15T10:15:35;11.10;99.90
18191;DHT22;47004;51.366;12.348;2022-11-15T10:17:51;11.20;99.90
18191;DHT22;47004;51.366;12.348;2022-11-15T10:20:07;11.30;99.90
18191;DHT22;47004;51.366;12.348;2022-11-15T10:22:21;11.40;99.90
18191;DHT22;47004;51.366;12.348;2022-11-15T10:24:26;11.50;99.90
18191;DHT22;47004;51.366;12.348;2022-11-15T10:26:29;11.50;99.90
18191;DHT22;47004;51.366;12.348;2022-11-15T10:28:31;11.60;99.90
18191;DHT22;47004;51.366;12.348;2022-11-15T10:30:35;11.80;99.90
18191;DHT22;47004;51.366;12.348;2022-11-15T10:32:38;11.80;99.90
18191;DHT22;47004;51.366;12.348;2022-11-15T10:34:41;12.00;99.90
18191;DHT22;47004;51.366;12.348;2022-11-15T10:36:44;12.00;99.90
18191;DHT22;47004;51.366;12.348;2022-11-15T10:38:55;12.10;99.90
18191;DHT22;47004;51.366;12.348;2022-11-15T10:41:07;12.20;99.90
18191;DHT22;47004;51.366;12.348;2022-11-15T10:43:16;12.30;99.90
18191;DHT22;47004;51.366;12.348;2022-11-15T10:45:37;12.40;99.90
18191;DHT22;47004;51.366;12.348;2022-11-15T10:47:39;12.50;99.90
18191;DHT22;47004;51.366;12.348;2022-11-15T10:49:57;12.60;99.90
18191;DHT22;47004;51.366;12.348;2022-11-15T10:52:02;12.70;99.90
18191;DHT22;47004;51.366;12.348;2022-11-15T10:54:08;12.90;99.90
18191;DHT22;47004;51.366;12.348;2022-11-15T10:56:38;13.00;99.90
18191;DHT22;47004;51.366;12.348;2022-11-15T10:58:42;13.10;99.90
18191;DHT22;47004;51.366;12.348;2022-11-15T11:00:46;13.20;99.90
18191;DHT22;47004;51.366;12.348;2022-11-15T11:02:57;13.30;99.90
18191;DHT22;47004;51.366;12.348;2022-11-15T11:05:00;13.40;99.90
18191;DHT22;47004;51.366;12.348;2022-11-15T11:07:20;13.50;99.90
18191;DHT22;47004;51.366;12.348;2022-11-15T11:09:29;13.60;99.90
18191;DHT22;47004;51.366;12.348;2022-11-15T11:11:44;13.70;99.90
18191;DHT22;47004;51.366;12.348;2022-11-15T11:13:48;13.80;99.90
18191;DHT22;47004;51.366;12.348;2022-11-15T11:15:55;14.00;99.90
18191;DHT22;47004;51.366;12.348;2022-11-15T11:18:02;14.10;99.90
18191;DHT22;47004;51.366;12.348;2022-11-15T11:20:14;14.20;99.90
18191;DHT22;47004;51.366;12.348;2022-11-15T11:22:25;14.30;99.90
18191;DHT22;47004;51.366;12.348;2022-11-15T11:24:34;14.50;99.90
18191;DHT22;47004;51.366;12.348;2022-11-15T11:26:42;14.70;98.30
18191;DHT22;47004;51.366;12.348;2022-11-15T11:28:53;14.90;95.50
18191;DHT22;47004;51.366;12.348;2022-11-15T11:31:06;15.20;92.60
18191;DHT22;47004;51.366;12.348;2022-11-15T11:33:16;15.30;90.50
18191;DHT22;47004;51.366;12.348;2022-11-15T11:35:22;15.60;84.40
18191;DHT22;47004;51.366;12.348;2022-11-15T11:37:30;15.80;85.50
18191;DHT22;47004;51.366;12.348;2022-11-15T11:39:44;15.90;80.40
18191;DHT22;47004;51.366;12.348;2022-11-15T11:41:58;16.20;76.40
18191;DHT22;47004;51.366;12.348;2022-11-15T11:44:11;16.50;72.30
18191;DHT22;47004;51.366;12.348;2022-11-15T11:46:43;16.80;68.20
18191;DHT22;47004;51.366;12.348;2022-11-15T11:48:50;17.10;65.70
18191;DHT22;47004;51.366;12.348;2022-11-15T11:51:01;17.30;65.30
18191;DHT22;47004;51.366;12.348;2022-11-15T11:53:11;17.60;61.50
18191;DHT22;47004;51.366;12.348;2022-11-15T11:55:19;17.80;60.00
18191;DHT22;47004;51.366;12.348;2022-11-15T11:57:29;18.00;58.80
18191;DHT22;47004;51.366;12.348;2022-11-15T11:59:39;18.30;57.20
18191;DHT22;47004;51.366;12.348;2022-11-15T12:01:44;18.50;55.70
18191;DHT22;47004;51.366;12.348;2022-11-15T12:03:50;18.70;55.00
18191;DHT22;47004;51.366;12.348;2022-11-15T12:05:55;19.00;53.80
18191;DHT22;47004;51.366;12.348;2022-11-15T12:08:30;19.10;52.90
18191;DHT22;47004;51.366;12.348;2022-11-15T12:10:35;19.30;51.70
18191;DHT22;47004;51.366;12.348;2022-11-15T12:12:47;19.50;51.70
18191;DHT22;47004;51.366;12.348;2022-11-15T12:14:55;19.70;51.00
18191;DHT22;47004;51.366;12.348;2022-11-15T12:16:57;19.80;49.70
18191;DHT22;47004;51.366;12.348;2022-11-15T12:19:01;20.00;49.60
18191;DHT22;47004;51.366;12.348;2022-11-15T12:21:07;20.10;49.10
18191;DHT22;47004;51.366;12.348;2022-11-15T12:23:19;20.30;49.30
18191;DHT22;47004;51.366;12.348;2022-11-15T12:25:26;20.50;48.70
18191;DHT22;47004;51.366;12.348;2022-11-15T12:27:36;20.70;48.00
18191;DHT22;47004;51.366;12.348;2022-11-15T12:29:41;20.90;47.30
18191;DHT22;47004;51.366;12.348;2022-11-15T12:31:48;21.00;47.10
18191;DHT22;47004;51.366;12.348;2022-11-15T12:33:55;21.20;46.60
18191;DHT22;47004;51.366;12.348;2022-11-15T12:36:00;21.30;46.00
18191;DHT22;47004;51.366;12.348;2022-11-15T12:38:02;21.40;45.60
18191;DHT22;47004;51.366;12.348;2022-11-15T12:40:18;21.50;45.30
18191;DHT22;47004;51.366;12.348;2022-11-15T12:42:40;21.60;45.70
18191;DHT22;47004;51.366;12.348;2022-11-15T12:44:58;21.60;44.50
18191;DHT22;47004;51.366;12.348;2022-11-15T12:47:03;21.70;45.50
18191;DHT22;47004;51.366;12.348;2022-11-15T12:49:10;21.80;44.60
18191;DHT22;47004;51.366;12.348;2022-11-15T12:51:12;21.80;43.50
18191;DHT22;47004;51.366;12.348;2022-11-15T12:53:34;21.90;43.60
18191;DHT22;47004;51.366;12.348;2022-11-15T12:55:36;22.00;43.90
18191;DHT22;47004;51.366;12.348;2022-11-15T12:57:41;22.10;43.90
18191;DHT22;47004;51.366;12.348;2022-11-15T12:59:50;22.10;43.10
18191;DHT22;47004;51.366;12.348;2022-11-15T13:01:57;22.20;42.90
18191;DHT22;47004;51.366;12.348;2022-11-15T13:04:14;22.30;43.00
18191;DHT22;47004;51.366;12.348;2022-11-15T13:06:41;22.40;42.80
18191;DHT22;47004;51.366;12.348;2022-11-15T13:08:49;22.40;42.70
18191;DHT22;47004;51.366;12.348;2022-11-15T13:10:51;22.50;42.40